Time;durP1;ratioP1;P1;durP2;ratioP2;P2;SDS_P1;SDS_P2;PMS_P1;PMS_P2;Temp;Humidity;BMP_temperature;BMP_pressure;BME280_temperature;BME280_humidity;BME280_pressure;Samples;Min_cycle;Max_cycle;Signal;HPM_P1;HPM_P2
2022/05/12 00:00:16;;;;;;;9.35;6.05;;;20.00;75.30;;;;;;4975470;28;20300;-69
2022/05/12 00:02:43;;;;;;;9.10;5.50;;;20.00;75.50;;;;;;4967154;28;20216;-70
2022/05/12 00:05:11;;;;;;;8.75;5.80;;;20.00;75.70;;;;;;4975083;28;20303;-71
2022/05/12 00:07:39;;;;;;;7.53;5.53;;;20.00;75.70;;;;;;4975084;28;20216;-69
2022/05/12 00:10:08;;;;;;;8.50;6.15;;;19.90;75.70;;;;;;4970016;28;20329;-69
2022/05/12 00:12:35;;;;;;;7.35;6.55;;;19.90;75.90;;;;;;4974062;28;20639;-70
2022/05/12 00:15:02;;;;;;;9.68;5.75;;;19.90;76.10;;;;;;4976261;28;20225;-69
2022/05/12 00:17:29;;;;;;;10.63;6.28;;;19.90;76.30;;;;;;4975646;28;20217;-70
2022/05/12 00:19:56;;;;;;;7.15;6.00;;;19.90;76.30;;;;;;4975723;28;20304;-69
2022/05/12 00:22:22;;;;;;;7.10;6.40;;;19.80;76.40;;;;;;4973939;28;20205;-71
2022/05/12 00:24:51;;;;;;;7.15;6.30;;;19.80;76.60;;;;;;4976003;28;20574;-70
2022/05/12 00:27:17;;;;;;;6.28;5.68;;;19.80;76.60;;;;;;4973996;28;20299;-70
2022/05/12 00:29:44;;;;;;;7.55;5.82;;;19.80;76.80;;;;;;4974058;28;20244;-70
2022/05/12 00:32:11;;;;;;;6.80;5.75;;;19.80;76.90;;;;;;4972742;28;20295;-70
2022/05/12 00:34:38;;;;;;;13.02;6.15;;;19.70;76.90;;;;;;4974654;28;20331;-70
2022/05/12 00:37:05;;;;;;;6.72;6.00;;;19.70;77.00;;;;;;4974296;28;20223;-71
2022/05/12 00:39:32;;;;;;;10.10;6.28;;;19.70;77.20;;;;;;4974803;28;20228;-70
2022/05/12 00:42:00;;;;;;;8.75;6.18;;;19.70;77.20;;;;;;4974140;28;20287;-70
2022/05/12 00:44:27;;;;;;;9.45;5.93;;;19.70;77.20;;;;;;4975193;28;20252;-70
2022/05/12 00:46:54;;;;;;;7.43;6.00;;;19.70;77.20;;;;;;4974203;28;20830;-70
2022/05/12 00:49:24;;;;;;;8.40;6.10;;;19.70;77.30;;;;;;4974249;28;20255;-70
2022/05/12 00:51:57;;;;;;;7.88;5.78;;;19.70;77.20;;;;;;4974562;28;20205;-70
2022/05/12 00:54:28;;;;;;;11.60;5.93;;;19.70;77.40;;;;;;4975487;28;20213;-70
2022/05/12 00:56:55;;;;;;;8.02;5.72;;;19.70;77.40;;;;;;4975171;28;20224;-70
2022/05/12 00:59:28;;;;;;;8.32;5.53;;;19.70;77.50;;;;;;4974816;28;20291;-71
2022/05/12 01:01:56;;;;;;;9.20;6.32;;;19.70;77.40;;;;;;4975311;28;20212;-71
2022/05/12 01:04:23;;;;;;;7.45;5.57;;;19.70;77.40;;;;;;4973765;28;20666;-71
2022/05/12 01:06:51;;;;;;;10.65;6.80;;;19.70;77.40;;;;;;4982177;28;20208;-70
2022/05/12 01:09:19;;;;;;;6.13;5.53;;;19.70;77.40;;;;;;4974330;28;20291;-71
2022/05/12 01:11:48;;;;;;;12.10;5.47;;;19.70;77.40;;;;;;4974982;28;20279;-71
2022/05/12 01:14:15;;;;;;;7.88;6.18;;;19.70;77.40;;;;;;4973707;28;20644;-71
2022/05/12 01:16:47;;;;;;;9.25;6.32;;;19.70;77.30;;;;;;4968576;28;20635;-70
2022/05/12 01:19:17;;;;;;;8.85;5.72;;;19.70;77.20;;;;;;4975641;28;20251;-70
2022/05/12 01:21:46;;;;;;;8.02;5.43;;;19.70;77.20;;;;;;4968720;28;20720;-70
2022/05/12 01:24:16;;;;;;;8.05;6.00;;;19.70;77.20;;;;;;4974391;28;20204;-71
2022/05/12 01:26:43;;;;;;;8.68;5.57;;;19.70;77.20;;;;;;4973173;28;20303;-71
2022/05/12 01:29:10;;;;;;;11.93;6.03;;;19.70;77.20;;;;;;4974476;28;20240;-71
2022/05/12 01:31:38;;;;;;;7.07;5.35;;;19.70;77.20;;;;;;4973231;28;20605;-71
2022/05/12 01:34:08;;;;;;;7.78;5.85;;;19.70;77.20;;;;;;4975256;28;20221;-72
2022/05/12 01:36:35;;;;;;;8.60;5.47;;;19.70;77.20;;;;;;4973662;28;20240;-71
2022/05/12 01:39:03;;;;;;;10.70;5.50;;;19.70;77.20;;;;;;4972249;28;20304;-71
2022/05/12 01:41:32;;;;;;;6.03;5.10;;;19.70;77.20;;;;;;4974843;28;20260;-71
2022/05/12 01:44:01;;;;;;;6.43;5.30;;;19.70;77.20;;;;;;4974303;28;20287;-71
2022/05/12 01:46:28;;;;;;;6.90;5.65;;;19.80;77.30;;;;;;4973740;28;20608;-71
2022/05/12 01:48:55;;;;;;;7.43;5.35;;;19.70;77.20;;;;;;4974379;28;20303;-71
2022/05/12 01:51:22;;;;;;;9.95;5.30;;;19.70;77.20;;;;;;4974165;28;20609;-72
2022/05/12 01:53:49;;;;;;;9.95;5.50;;;19.70;77.20;;;;;;4973521;28;20311;-71
2022/05/12 01:56:16;;;;;;;7.07;5.05;;;20.00;77.50;;;;;;4975091;28;20255;-71
2022/05/12 01:58:44;;;;;;;7.22;5.57;;;19.70;77.20;;;;;;4975243;28;20212;-70
2022/05/12 02:01:11;;;;;;;7.00;6.10;;;19.60;77.20;;;;;;4974218;28;20300;-71
2022/05/12 02:03:38;;;;;;;8.27;5.22;;;19.70;77.50;;;;;;4975113;28;20212;-70
2022/05/12 02:06:05;;;;;;;8.23;5.53;;;19.60;77.40;;;;;;4974103;28;20219;-71
2022/05/12 02:08:32;;;;;;;6.72;5.15;;;19.60;77.50;;;;;;4971608;28;20296;-71
2022/05/12 02:10:59;;;;;;;8.18;4.93;;;19.60;77.60;;;;;;4973857;28;20216;-70
2022/05/12 02:13:27;;;;;;;7.20;5.55;;;19.50;77.50;;;;;;4974275;28;20585;-71
2022/05/12 02:15:56;;;;;;;9.38;5.43;;;19.60;77.60;;;;;;4974745;28;20233;-70
2022/05/12 02:18:24;;;;;;;5.43;4.93;;;19.50;77.50;;;;;;4974148;28;20212;-71
2022/05/12 02:20:51;;;;;;;8.30;5.47;;;19.50;77.70;;;;;;4974655;28;20220;-70
2022/05/12 02:23:19;;;;;;;6.53;5.18;;;19.50;77.70;;;;;;4979271;28;20681;-71
2022/05/12 02:25:46;;;;;;;5.50;4.93;;;19.50;77.80;;;;;;4974570;28;20220;-70
2022/05/12 02:28:14;;;;;;;6.05;4.82;;;19.50;77.60;;;;;;4978087;28;20720;-71
2022/05/12 02:30:41;;;;;;;7.38;5.25;;;19.50;77.80;;;;;;4976790;28;20327;-70
2022/05/12 02:33:10;;;;;;;5.78;4.93;;;19.50;77.80;;;;;;4976727;28;20208;-70
2022/05/12 02:35:37;;;;;;;6.43;4.75;;;19.50;77.90;;;;;;4977526;28;20614;-71
2022/05/12 02:38:06;;;;;;;7.50;5.38;;;19.40;77.80;;;;;;4977666;28;20757;-71
2022/05/12 02:40:32;;;;;;;7.57;4.50;;;19.40;77.80;;;;;;4976960;28;20275;-71
2022/05/12 02:43:00;;;;;;;9.07;5.63;;;19.40;77.80;;;;;;4977729;28;20632;-70
2022/05/12 02:45:27;;;;;;;6.50;4.95;;;19.40;78.10;;;;;;4977084;28;20205;-70
2022/05/12 02:47:54;;;;;;;5.78;4.78;;;19.40;78.00;;;;;;4976678;28;20201;-71
2022/05/12 02:50:23;;;;;;;5.97;5.47;;;19.30;78.00;;;;;;4976661;28;20219;-71
2022/05/12 02:52:51;;;;;;;10.77;4.97;;;19.30;78.10;;;;;;4977479;28;20634;-71
2022/05/12 02:55:18;;;;;;;6.57;5.53;;;19.30;78.30;;;;;;4976851;28;20227;-71
2022/05/12 02:57:44;;;;;;;5.07;4.43;;;19.30;78.20;;;;;;4975538;28;20630;-71
2022/05/12 03:00:17;;;;;;;7.22;4.57;;;19.30;79.10;;;;;;4977007;28;20204;-70
2022/05/12 03:02:45;;;;;;;7.90;5.00;;;19.30;78.40;;;;;;4974113;28;20240;-70
2022/05/12 03:05:12;;;;;;;6.95;4.80;;;19.30;78.40;;;;;;4977078;28;20209;-70
2022/05/12 03:07:41;;;;;;;5.63;4.70;;;19.30;78.40;;;;;;4977246;28;20209;-70
2022/05/12 03:10:09;;;;;;;6.05;4.75;;;19.30;78.40;;;;;;4969132;28;20207;-70
2022/05/12 03:12:36;;;;;;;5.32;4.32;;;19.20;78.40;;;;;;4977162;28;20236;-71
2022/05/12 03:15:03;;;;;;;8.05;4.93;;;19.30;78.60;;;;;;4976062;28;20243;-70
2022/05/12 03:17:31;;;;;;;5.20;4.70;;;19.20;78.30;;;;;;4977009;28;20247;-70
2022/05/12 03:19:58;;;;;;;5.13;4.63;;;19.30;78.40;;;;;;4970440;28;20221;-71
2022/05/12 03:22:25;;;;;;;8.63;5.05;;;19.30;78.50;;;;;;4975755;28;20300;-71
2022/05/12 03:24:54;;;;;;;9.10;4.60;;;19.30;79.00;;;;;;4976879;28;20205;-72
2022/05/12 03:27:21;;;;;;;5.57;3.88;;;19.20;78.40;;;;;;4976269;28;20219;-71
2022/05/12 03:29:48;;;;;;;7.35;4.22;;;19.30;78.50;;;;;;4976226;28;20298;-71
2022/05/12 03:32:16;;;;;;;8.90;4.07;;;19.30;78.40;;;;;;4975677;28;20201;-71
2022/05/12 03:34:44;;;;;;;6.07;4.55;;;19.30;78.40;;;;;;4975360;28;20292;-71
2022/05/12 03:37:12;;;;;;;4.80;4.35;;;19.30;78.40;;;;;;4975641;28;20685;-71
2022/05/12 03:39:39;;;;;;;8.57;4.95;;;19.30;78.30;;;;;;4975664;28;20240;-71
2022/05/12 03:42:10;;;;;;;8.70;4.47;;;19.40;78.20;;;;;;4974280;28;20224;-71
2022/05/12 03:44:50;;;;;;;5.80;4.22;;;19.40;78.10;;;;;;4976142;28;20307;-70
2022/05/12 03:47:20;;;;;;;10.30;4.70;;;19.50;78.00;;;;;;4975851;28;20208;-70
2022/05/12 03:49:48;;;;;;;9.32;4.70;;;19.50;77.90;;;;;;4977044;28;20211;-71
2022/05/12 03:52:15;;;;;;;6.97;4.30;;;19.50;78.00;;;;;;4977078;28;20224;-71
2022/05/12 03:54:43;;;;;;;8.07;3.85;;;19.60;77.90;;;;;;4976438;28;20291;-70
2022/05/12 03:57:13;;;;;;;6.57;3.97;;;19.60;77.70;;;;;;4976355;28;20303;-71
2022/05/12 03:59:41;;;;;;;5.22;3.80;;;19.70;77.60;;;;;;4975284;28;20209;-70
2022/05/12 04:02:09;;;;;;;9.07;4.20;;;19.70;77.20;;;;;;4974737;28;20212;-70
2022/05/12 04:04:36;;;;;;;7.15;3.97;;;19.80;77.30;;;;;;4975418;28;20299;-71
2022/05/12 04:07:05;;;;;;;5.82;4.72;;;19.80;77.10;;;;;;4970722;28;20213;-70
2022/05/12 04:09:32;;;;;;;5.55;3.85;;;19.80;77.00;;;;;;4975157;28;20219;-70
2022/05/12 04:11:59;;;;;;;7.60;4.05;;;19.90;76.90;;;;;;4974913;28;22001;-70
2022/05/12 04:14:27;;;;;;;7.18;4.57;;;19.90;76.90;;;;;;4976222;28;20626;-70
2022/05/12 04:16:54;;;;;;;5.60;3.92;;;19.90;76.70;;;;;;4974996;28;20653;-70
2022/05/12 04:19:21;;;;;;;9.65;4.25;;;19.90;76.70;;;;;;4974918;28;20669;-71
2022/05/12 04:21:48;;;;;;;6.45;4.07;;;20.00;76.70;;;;;;4972603;28;20232;-71
2022/05/12 04:24:14;;;;;;;8.20;3.88;;;20.10;76.60;;;;;;4975019;28;20914;-71
2022/05/12 04:26:41;;;;;;;4.57;3.63;;;20.10;76.40;;;;;;4975718;28;20259;-70
2022/05/12 04:29:08;;;;;;;6.03;4.03;;;20.20;76.90;;;;;;4974889;28;20348;-71
2022/05/12 04:31:37;;;;;;;7.75;3.90;;;20.30;76.00;;;;;;4974944;28;20209;-71
2022/05/12 04:36:49;;;;;;;4.72;3.78;;;20.30;75.80;;;;;;4974819;28;20223;-70
2022/05/12 04:39:17;;;;;;;8.95;4.57;;;20.40;75.40;;;;;;4975248;28;20644;-70
2022/05/12 04:41:44;;;;;;;4.90;3.97;;;20.50;75.50;;;;;;4975204;28;20544;-71
2022/05/12 04:44:12;;;;;;;6.40;4.25;;;20.50;75.40;;;;;;4973596;28;20295;-72
2022/05/12 04:46:42;;;;;;;5.97;4.00;;;20.60;75.10;;;;;;4975036;28;20212;-71
2022/05/12 04:49:10;;;;;;;4.72;3.80;;;20.70;75.00;;;;;;4975566;28;20261;-71
2022/05/12 04:51:37;;;;;;;6.82;3.70;;;20.70;74.80;;;;;;4973867;28;20216;-71
2022/05/12 04:54:09;;;;;;;5.55;3.25;;;20.80;74.60;;;;;;4974150;28;20291;-71
2022/05/12 04:56:36;;;;;;;3.85;3.42;;;20.90;75.20;;;;;;4968498;28;20573;-71
2022/05/12 04:59:04;;;;;;;7.53;3.60;;;21.00;74.20;;;;;;4975030;28;20219;-72
2022/05/12 05:01:31;;;;;;;5.20;3.90;;;21.00;73.90;;;;;;4972741;28;20208;-73
2022/05/12 05:04:00;;;;;;;12.95;4.20;;;21.10;74.40;;;;;;4969864;28;20327;-71
2022/05/12 05:06:27;;;;;;;8.18;4.07;;;21.20;73.50;;;;;;4962599;28;20208;-73
2022/05/12 05:08:54;;;;;;;9.85;3.88;;;21.30;73.30;;;;;;4968645;28;20571;-72
2022/05/12 05:11:21;;;;;;;8.30;4.22;;;21.40;73.10;;;;;;4972188;28;20694;-72
2022/05/12 05:13:48;;;;;;;7.28;3.45;;;21.50;72.70;;;;;;4975383;28;20613;-71
2022/05/12 05:16:15;;;;;;;11.20;3.72;;;21.50;72.30;;;;;;4973704;28;20712;-70
2022/05/12 05:18:42;;;;;;;9.63;4.18;;;21.60;72.40;;;;;;4973783;28;20259;-69
2022/05/12 05:21:11;;;;;;;5.72;3.58;;;21.60;72.10;;;;;;4975612;28;20216;-75
2022/05/12 05:23:39;;;;;;;8.85;3.58;;;21.70;71.70;;;;;;4976758;28;20280;-75
2022/05/12 05:26:07;;;;;;;6.15;3.67;;;21.70;71.30;;;;;;4974816;28;20208;-78
2022/05/12 05:28:35;;;;;;;7.63;3.80;;;21.70;71.40;;;;;;4976362;28;20291;-76
2022/05/12 05:31:02;;;;;;;8.18;3.92;;;21.70;71.40;;;;;;4976726;28;20200;-76
2022/05/12 05:33:29;;;;;;;7.47;3.72;;;21.70;71.40;;;;;;4974208;28;20246;-71
2022/05/12 05:35:57;;;;;;;6.97;3.47;;;21.80;71.10;;;;;;4973084;28;20355;-69
2022/05/12 05:38:25;;;;;;;12.75;3.92;;;21.90;71.00;;;;;;4972780;28;20732;-69
2022/05/12 05:40:52;;;;;;;10.23;3.40;;;21.90;70.70;;;;;;4970620;28;20209;-68
2022/05/12 05:43:19;;;;;;;10.10;4.03;;;22.00;70.30;;;;;;4972708;28;20566;-69
2022/05/12 05:45:47;;;;;;;10.15;4.05;;;22.00;70.00;;;;;;4973216;28;20285;-69
2022/05/12 05:48:14;;;;;;;10.00;3.97;;;22.00;69.90;;;;;;4973518;28;20212;-70
2022/05/12 05:53:35;;;;;;;16.23;4.13;;;22.20;70.00;;;;;;4966338;28;20204;-71
2022/05/12 05:56:05;;;;;;;6.68;4.10;;;22.20;69.90;;;;;;4968545;28;20212;-69
2022/05/12 05:58:33;;;;;;;3.88;3.53;;;22.30;69.50;;;;;;4966829;28;20280;-71
2022/05/12 06:01:00;;;;;;;9.35;3.80;;;22.30;69.40;;;;;;4968534;28;20655;-71
2022/05/12 06:03:27;;;;;;;9.57;4.05;;;22.40;69.60;;;;;;4969438;28;20228;-69
2022/05/12 06:05:55;;;;;;;13.80;4.13;;;22.40;69.50;;;;;;4973434;28;20207;-72
2022/05/12 06:08:22;;;;;;;10.75;3.83;;;22.50;69.50;;;;;;4972396;28;20231;-72
2022/05/12 06:10:50;;;;;;;8.93;3.38;;;22.60;69.40;;;;;;4970502;28;20228;-72
2022/05/12 06:13:18;;;;;;;7.10;3.88;;;22.70;69.30;;;;;;4972639;28;20240;-72
2022/05/12 06:15:45;;;;;;;13.88;3.72;;;22.70;68.70;;;;;;4972578;28;20232;-72
2022/05/12 06:18:14;;;;;;;7.65;3.53;;;22.80;68.70;;;;;;4971954;28;20291;-70
2022/05/12 06:20:43;;;;;;;8.45;3.80;;;22.90;68.50;;;;;;4971528;28;20728;-71
2022/05/12 06:23:10;;;;;;;12.18;4.82;;;22.90;68.40;;;;;;4972283;28;20236;-72
2022/05/12 06:25:38;;;;;;;12.93;3.85;;;23.00;68.40;;;;;;4970366;28;20273;-73
2022/05/12 06:28:08;;;;;;;11.45;4.05;;;23.10;68.20;;;;;;4971604;28;20702;-70
2022/05/12 06:30:35;;;;;;;7.78;3.97;;;23.20;68.30;;;;;;4970955;28;20244;-70
2022/05/12 06:33:02;;;;;;;10.05;4.72;;;23.20;67.90;;;;;;4974543;28;20287;-71
2022/05/12 06:35:29;;;;;;;11.15;3.75;;;23.30;67.80;;;;;;4971462;28;20209;-72
2022/05/12 06:37:56;;;;;;;8.18;4.20;;;23.40;67.70;;;;;;4972330;28;20304;-66
2022/05/12 06:40:23;;;;;;;12.57;4.15;;;23.40;67.50;;;;;;4970391;28;20209;-69
2022/05/12 06:42:51;;;;;;;14.40;4.28;;;23.40;67.40;;;;;;4971767;28;20216;-68
2022/05/12 06:45:21;;;;;;;13.02;4.40;;;23.50;67.60;;;;;;4968612;28;20257;-67
2022/05/12 06:47:50;;;;;;;14.65;3.97;;;23.50;67.60;;;;;;4964091;28;20295;-68
2022/05/12 06:50:19;;;;;;;8.38;3.53;;;23.50;67.40;;;;;;4973211;28;20623;-71
2022/05/12 06:52:47;;;;;;;6.70;3.85;;;23.60;67.30;;;;;;4964846;28;20247;-69
2022/05/12 06:55:14;;;;;;;7.20;3.88;;;23.70;67.40;;;;;;4970488;28;20217;-69
2022/05/12 06:57:42;;;;;;;8.45;5.10;;;23.80;67.40;;;;;;4969798;28;20236;-69
2022/05/12 07:00:11;;;;;;;19.17;4.22;;;23.80;67.30;;;;;;4965185;28;20236;-69
2022/05/12 07:02:39;;;;;;;7.40;3.80;;;23.90;67.10;;;;;;4968787;28;20213;-70
2022/05/12 07:05:08;;;;;;;11.13;3.70;;;24.00;67.10;;;;;;4969252;28;20299;-70
2022/05/12 07:07:36;;;;;;;8.05;3.67;;;24.00;66.90;;;;;;4970157;28;20244;-67
2022/05/12 07:10:04;;;;;;;9.65;3.83;;;24.10;66.40;;;;;;4970992;28;20592;-67
2022/05/12 07:12:31;;;;;;;7.13;3.70;;;24.20;66.00;;;;;;4972226;28;20577;-67
2022/05/12 07:14:58;;;;;;;11.27;3.47;;;24.20;65.50;;;;;;4972755;28;20259;-70
2022/05/12 07:17:25;;;;;;;17.63;4.93;;;24.30;65.60;;;;;;4974651;28;20708;-70
2022/05/12 07:26:34;;;;;;;19.75;4.43;;;24.30;65.30;;;;;;4976324;28;20232;-71
2022/05/12 07:28:09;;;;;;;11.43;4.50;;;24.60;64.00;;;;;;4975027;28;20282;-71
2022/05/12 07:33:17;;;;;;;13.05;3.78;;;24.90;64.70;;;;;;4975663;28;20211;-71
2022/05/12 07:35:45;;;;;;;21.83;4.65;;;24.90;63.20;;;;;;4980055;28;20542;-72
2022/05/12 07:38:12;;;;;;;23.20;4.60;;;24.90;63.70;;;;;;4976437;28;20665;-73
2022/05/12 07:40:39;;;;;;;24.02;4.53;;;24.90;63.00;;;;;;4974988;28;20259;-72
2022/05/12 07:43:06;;;;;;;16.58;4.63;;;25.00;62.90;;;;;;4969015;28;20213;-72
2022/05/12 07:45:33;;;;;;;18.23;4.80;;;25.00;63.00;;;;;;4975697;28;20627;-71
2022/05/12 07:48:01;;;;;;;14.73;4.47;;;25.00;63.30;;;;;;4973457;28;20672;-71
2022/05/12 07:50:28;;;;;;;15.77;5.80;;;25.10;63.20;;;;;;4975197;28;20291;-72
2022/05/12 07:52:57;;;;;;;14.15;4.55;;;25.00;62.90;;;;;;4974104;28;20271;-72
2022/05/12 07:55:23;;;;;;;12.13;5.30;;;25.10;63.30;;;;;;4974384;28;20303;-72
2022/05/12 07:57:51;;;;;;;15.55;4.90;;;25.00;63.30;;;;;;4965877;28;20243;-72
2022/05/12 08:00:19;;;;;;;14.43;4.68;;;25.10;63.10;;;;;;4972383;28;20296;-73
2022/05/12 08:02:46;;;;;;;9.10;4.55;;;25.10;62.90;;;;;;4974549;28;20205;-73
2022/05/12 08:05:14;;;;;;;10.98;4.22;;;25.20;62.90;;;;;;4971454;28;20230;-72
2022/05/12 08:07:42;;;;;;;14.30;4.50;;;25.20;62.90;;;;;;4973289;28;20727;-73
2022/05/12 08:10:11;;;;;;;9.68;4.13;;;25.30;62.60;;;;;;4975006;28;20220;-72
2022/05/12 08:12:38;;;;;;;10.50;4.13;;;25.30;62.70;;;;;;4973719;28;20630;-73
2022/05/12 08:15:06;;;;;;;7.60;4.50;;;25.40;62.80;;;;;;4975289;28;20566;-74
2022/05/12 08:17:33;;;;;;;5.32;3.83;;;25.40;62.40;;;;;;4972619;28;20311;-70
2022/05/12 08:20:00;;;;;;;9.52;3.78;;;25.50;62.70;;;;;;4973811;28;20359;-72
2022/05/12 08:22:27;;;;;;;6.57;3.28;;;25.60;62.80;;;;;;4973745;28;21140;-71
2022/05/12 08:24:54;;;;;;;8.43;4.10;;;25.50;62.70;;;;;;4974447;28;20211;-71
2022/05/12 08:27:23;;;;;;;8.10;3.50;;;25.50;63.10;;;;;;4973452;28;20207;-72
2022/05/12 08:29:50;;;;;;;9.65;3.50;;;25.40;63.10;;;;;;4975739;28;20248;-72
2022/05/12 08:32:17;;;;;;;5.30;3.80;;;25.30;63.30;;;;;;4974622;28;20205;-73
2022/05/12 08:34:44;;;;;;;8.18;3.60;;;25.20;63.90;;;;;;4972052;28;20299;-71
2022/05/12 08:37:11;;;;;;;8.32;3.70;;;25.00;64.30;;;;;;4973663;28;20797;-70
2022/05/12 08:39:43;;;;;;;12.10;3.95;;;24.80;64.60;;;;;;4977058;28;20212;-72
2022/05/12 08:42:16;;;;;;;7.55;3.17;;;24.70;64.80;;;;;;4977144;28;20204;-72
2022/05/12 08:44:44;;;;;;;7.97;3.97;;;24.50;64.50;;;;;;4966147;28;20591;-73
2022/05/12 08:47:14;;;;;;;12.63;3.33;;;24.40;65.00;;;;;;4975246;28;20205;-72
2022/05/12 08:49:44;;;;;;;9.95;2.67;;;24.30;65.00;;;;;;4972216;28;20240;-71
2022/05/12 08:52:17;;;;;;;17.90;2.80;;;24.20;65.20;;;;;;4978751;28;20291;-71
2022/05/12 08:54:51;;;;;;;8.02;3.08;;;24.00;65.50;;;;;;4971968;28;20244;-72
2022/05/12 08:57:28;;;;;;;13.38;3.42;;;23.80;65.70;;;;;;4970661;28;20216;-72
2022/05/12 08:59:58;;;;;;;8.63;2.88;;;23.60;66.00;;;;;;4973155;28;20295;-72
2022/05/12 09:02:36;;;;;;;5.78;2.55;;;23.50;66.40;;;;;;4975546;28;20292;-72
2022/05/12 09:05:07;;;;;;;9.85;2.50;;;23.50;65.60;;;;;;4974372;28;20296;-71
2022/05/12 09:07:41;;;;;;;9.63;3.03;;;23.50;65.70;;;;;;4973633;28;20333;-71
2022/05/12 09:10:22;;;;;;;6.82;2.55;;;23.30;65.60;;;;;;4978641;28;20720;-73
2022/05/12 09:12:53;;;;;;;7.32;2.40;;;23.10;66.10;;;;;;4974680;28;20244;-72
2022/05/12 09:15:26;;;;;;;10.02;2.58;;;22.90;66.80;;;;;;4974721;28;20666;-73
2022/05/12 09:17:57;;;;;;;11.10;2.55;;;22.80;67.10;;;;;;4971815;28;20258;-72
2022/05/12 09:20:25;;;;;;;5.10;2.40;;;22.80;67.30;;;;;;4969714;28;20538;-73
2022/05/12 09:22:52;;;;;;;6.47;2.10;;;22.80;67.60;;;;;;4973467;28;20216;-72
2022/05/12 09:25:33;;;;;;;9.30;2.22;;;22.80;67.30;;;;;;4975105;28;20566;-72
2022/05/12 09:28:08;;;;;;;4.97;2.15;;;22.80;66.70;;;;;;4966824;28;20232;-72
2022/05/12 09:30:38;;;;;;;7.43;1.80;;;22.80;66.60;;;;;;4971869;28;20339;-73
2022/05/12 09:33:05;;;;;;;6.13;1.80;;;22.80;66.20;;;;;;4978044;28;20235;-73
2022/05/12 09:35:32;;;;;;;5.00;1.42;;;22.90;66.60;;;;;;4972588;28;20217;-72
2022/05/12 09:37:59;;;;;;;4.68;1.33;;;22.90;64.80;;;;;;4973746;28;20670;-73
2022/05/12 09:40:35;;;;;;;6.75;1.55;;;23.00;64.40;;;;;;4974582;28;20208;-72
2022/05/12 09:43:19;;;;;;;5.15;1.60;;;22.90;64.20;;;;;;4973448;28;20723;-73
2022/05/12 09:46:05;;;;;;;5.38;1.48;;;22.90;64.60;;;;;;4974502;28;20272;-73
2022/05/12 09:48:33;;;;;;;4.30;1.30;;;23.00;64.70;;;;;;4967233;28;20580;-73
2022/05/12 09:51:21;;;;;;;6.32;1.70;;;23.30;64.00;;;;;;4974175;28;20228;-72
2022/05/12 09:53:49;;;;;;;10.23;1.58;;;23.70;62.80;;;;;;4973555;28;20209;-73
2022/05/12 09:56:29;;;;;;;5.88;1.50;;;24.00;62.40;;;;;;4972373;28;20200;-73
2022/05/12 09:59:07;;;;;;;7.78;1.20;;;24.00;61.80;;;;;;4971795;28;20254;-73
2022/05/12 10:01:48;;;;;;;3.80;1.50;;;24.00;61.40;;;;;;4973490;28;20575;-73
2022/05/12 10:09:55;;;;;;;6.57;1.55;;;23.90;62.30;;;;;;4964650;28;20297;-75
2022/05/12 10:12:24;;;;;;;5.18;1.58;;;23.80;62.50;;;;;;4958672;28;20284;-71
2022/05/12 10:14:55;;;;;;;7.80;1.70;;;23.80;62.70;;;;;;4969362;28;20726;-72
2022/05/12 10:17:29;;;;;;;5.18;1.63;;;23.90;62.90;;;;;;4962180;28;20225;-72
2022/05/12 10:20:02;;;;;;;10.35;1.60;;;24.00;63.00;;;;;;4968856;28;20233;-72
2022/05/12 10:22:34;;;;;;;9.30;1.45;;;24.00;62.60;;;;;;4969519;28;20219;-72
2022/05/12 10:25:21;;;;;;;9.63;1.48;;;24.20;62.00;;;;;;4963501;28;20232;-72
2022/05/12 10:27:53;;;;;;;2.10;1.10;;;24.20;60.70;;;;;;4966384;28;20197;-72
2022/05/12 10:30:35;;;;;;;8.57;1.20;;;24.20;60.10;;;;;;4963420;28;20255;-71
2022/05/12 10:33:26;;;;;;;7.18;1.45;;;24.10;59.10;;;;;;4974772;28;20215;-70
2022/05/12 10:36:04;;;;;;;13.55;1.33;;;24.10;59.30;;;;;;4973577;28;20841;-71
2022/05/12 10:38:39;;;;;;;16.08;2.17;;;24.20;58.70;;;;;;4972062;28;20704;-71
2022/05/12 10:41:17;;;;;;;7.30;1.17;;;24.20;58.80;;;;;;4972978;28;20207;-70
2022/05/12 10:44:05;;;;;;;5.22;0.93;;;24.00;58.00;;;;;;4970245;28;20687;-68
2022/05/12 10:46:42;;;;;;;9.20;1.10;;;23.80;58.40;;;;;;4974021;28;20205;-71
2022/05/12 10:49:20;;;;;;;11.18;1.70;;;23.50;59.20;;;;;;4978110;28;20213;-69
2022/05/12 10:51:58;;;;;;;8.80;1.20;;;23.30;59.80;;;;;;4977307;28;20209;-68
2022/05/12 10:54:31;;;;;;;6.68;1.08;;;23.20;60.20;;;;;;4977773;28;20639;-69
2022/05/12 10:57:10;;;;;;;13.40;1.92;;;23.10;60.80;;;;;;4977469;28;20256;-73
2022/05/12 10:59:54;;;;;;;11.32;1.27;;;23.00;61.10;;;;;;4976979;28;20240;-70
2022/05/12 11:02:34;;;;;;;7.18;1.23;;;23.00;61.80;;;;;;4976674;28;20243;-71
2022/05/12 11:05:13;;;;;;;2.65;0.93;;;23.10;62.10;;;;;;4977548;28;20255;-72
2022/05/12 11:07:45;;;;;;;4.72;1.05;;;23.30;61.50;;;;;;4973850;28;20673;-71
2022/05/12 11:10:23;;;;;;;6.97;1.15;;;23.30;60.80;;;;;;4975441;28;20207;-71
2022/05/12 11:12:53;;;;;;;8.10;1.58;;;23.40;61.00;;;;;;4975439;28;20236;-71
2022/05/12 11:15:24;;;;;;;9.18;1.45;;;23.60;60.60;;;;;;4977105;28;20197;-70
2022/05/12 11:17:58;;;;;;;8.00;1.45;;;23.70;60.10;;;;;;4970816;28;20216;-70
2022/05/12 11:20:32;;;;;;;13.48;1.40;;;23.90;60.00;;;;;;4972502;28;20196;-71
2022/05/12 11:23:12;;;;;;;5.65;1.25;;;23.90;59.20;;;;;;4976337;28;20200;-71
2022/05/12 11:25:46;;;;;;;9.20;1.30;;;24.10;58.80;;;;;;4974297;28;20212;-70
2022/05/12 11:31:14;;;;;;;5.40;1.13;;;24.60;57.80;;;;;;4974367;28;20687;-71
2022/05/12 11:33:53;;;;;;;8.80;1.38;;;24.90;58.00;;;;;;4967273;28;20224;-71
2022/05/12 11:36:21;;;;;;;11.23;1.15;;;25.10;57.40;;;;;;4971864;28;20210;-71
2022/05/12 11:38:51;;;;;;;14.98;1.67;;;25.30;56.70;;;;;;4967122;28;20599;-69
2022/05/12 11:42:06;;;;;;;5.65;1.38;;;25.30;56.80;;;;;;4971803;28;20208;-71
2022/05/12 11:44:39;;;;;;;6.70;1.45;;;25.10;56.60;;;;;;4889886;29;20303;-67
2022/05/12 11:47:40;;;;;;;5.68;1.30;;;24.70;56.40;;;;;;4896879;29;20270;-71
2022/05/12 11:50:24;;;;;;;4.72;1.42;;;24.50;56.50;;;;;;4942397;28;20212;-72
2022/05/12 11:53:03;;;;;;;6.50;1.23;;;24.30;57.20;;;;;;4974772;28;20239;-70
2022/05/12 11:55:32;;;;;;;4.70;1.60;;;24.00;57.40;;;;;;4973908;28;20296;-72
2022/05/12 11:58:05;;;;;;;5.38;1.10;;;23.90;57.30;;;;;;4974172;28;20685;-72
2022/05/12 12:00:56;;;;;;;7.22;1.25;;;23.80;57.80;;;;;;4973578;28;20208;-74
2022/05/12 12:03:55;;;;;;;12.57;1.42;;;23.80;57.80;;;;;;4975735;28;20651;-75
2022/05/12 12:06:53;;;;;;;6.63;1.52;;;23.80;57.80;;;;;;4975241;28;20213;-71
2022/05/12 12:09:56;;;;;;;7.80;1.02;;;23.80;58.30;;;;;;4970587;28;20208;-72
2022/05/12 12:12:55;;;;;;;6.78;1.00;;;23.80;57.80;;;;;;4977104;28;20209;-71
2022/05/12 12:15:57;;;;;;;6.85;1.42;;;23.80;57.80;;;;;;4965436;28;20212;-71
2022/05/12 12:18:53;;;;;;;9.05;1.20;;;23.70;56.20;;;;;;4973630;28;20275;-72
2022/05/12 12:21:54;;;;;;;5.80;1.30;;;23.80;55.30;;;;;;4973432;28;20208;-72
2022/05/12 12:25:06;;;;;;;4.18;1.45;;;24.00;53.60;;;;;;4975727;28;20259;-71
2022/05/12 12:27:49;;;;;;;10.00;1.75;;;24.00;53.00;;;;;;4971634;28;20227;-72
2022/05/12 12:30:34;;;;;;;9.80;1.75;;;24.00;52.20;;;;;;4969241;28;20327;-72
2022/05/12 12:33:37;;;;;;;13.23;2.25;;;24.00;52.60;;;;;;4972726;28;20203;-71
2022/05/12 12:36:08;;;;;;;9.63;1.20;;;24.10;53.10;;;;;;4975822;28;20283;-72
2022/05/12 12:39:07;;;;;;;13.70;1.60;;;24.40;53.00;;;;;;4977494;28;20386;-71
2022/05/12 12:41:43;;;;;;;18.75;1.65;;;24.60;52.30;;;;;;4974352;28;20208;-73
2022/05/12 12:44:18;;;;;;;6.53;1.90;;;24.90;52.00;;;;;;4976232;28;20200;-71
2022/05/12 12:46:57;;;;;;;7.78;1.63;;;25.10;51.10;;;;;;4972557;28;20200;-73
2022/05/12 12:49:28;;;;;;;13.90;1.80;;;25.20;50.70;;;;;;4977846;28;20288;-71
2022/05/12 12:51:57;;;;;;;14.90;1.40;;;25.40;50.50;;;;;;4973349;28;20670;-69
2022/05/12 12:57:15;;;;;;;12.68;1.27;;;25.30;47.80;;;;;;4976130;28;20200;-70
2022/05/12 12:59:51;;;;;;;11.02;1.83;;;25.10;47.80;;;;;;4976035;28;20212;-70
2022/05/12 13:02:30;;;;;;;14.40;1.90;;;25.00;48.30;;;;;;4972101;28;20697;-69
2022/05/12 13:04:58;;;;;;;12.90;1.95;;;25.00;48.30;;;;;;4972187;28;20200;-70
2022/05/12 13:07:28;;;;;;;13.40;1.88;;;24.80;48.30;;;;;;4965408;28;20311;-71
2022/05/12 13:09:56;;;;;;;12.85;1.58;;;24.60;48.40;;;;;;4965957;28;20680;-72
2022/05/12 13:12:26;;;;;;;9.60;1.50;;;24.40;49.00;;;;;;4971747;28;20210;-70
2022/05/12 13:14:56;;;;;;;7.15;1.33;;;24.20;49.30;;;;;;4971687;28;20643;-71
2022/05/12 13:17:29;;;;;;;12.10;2.08;;;24.10;49.70;;;;;;4985416;28;20207;-70
2022/05/12 13:19:58;;;;;;;10.63;1.85;;;24.10;50.60;;;;;;4974087;28;20649;-71
2022/05/12 13:22:30;;;;;;;8.95;1.63;;;24.20;50.10;;;;;;4973034;28;20208;-72
2022/05/12 13:24:58;;;;;;;14.88;1.65;;;24.40;49.10;;;;;;4979363;28;20232;-69
2022/05/12 13:27:29;;;;;;;9.52;1.38;;;24.50;49.20;;;;;;4973092;28;20217;-72